Alorton, Illinois
Current Conditions -  °F | °C
As of 1:53 AM on Thursday 29 Jan 2015 (Local Time) from KCPS Reporting Station
Clear Clear  
Wind Chill: 54°   Ceiling: Unl
Heat Index: 54°   Visibility: 10mi
Dew Point: 39°   Wind: 14mph
Humidity: 57%   Direction: 200°SSW
Pressure: 29.78"   Gusts: 22mph
Location:  38.5841°N, 90.126°W
Report Text: KCPS 290753Z AUTO 20012G19KT 10SM CLR 12/04 A2978 RMK AO2 SLP084 T01220039 TSNO
Loading
Personal Weather Stations






























Interactive Weather Map New forecast layout! Learn more

10-Day Weather Forecast

Advertisements
Track Severe Weather on mobile